sensor_id;sensor_type;location;lat;lon;timestamp;pressure;altitude;pressure_sealevel;temperature;humidity
80186;BME280;69904;52.122;5.422;2024-03-22T00:02:21;102110.31;;;10.62;89.58
80186;BME280;69904;52.122;5.422;2024-03-22T00:04:47;102111.16;;;10.63;89.65
80186;BME280;69904;52.122;5.422;2024-03-22T00:07:12;102103.88;;;10.63;89.54
80186;BME280;69904;52.122;5.422;2024-03-22T00:09:38;102108.28;;;10.64;90.13
80186;BME280;69904;52.122;5.422;2024-03-22T00:12:03;102101.03;;;10.65;89.90
80186;BME280;69904;52.122;5.422;2024-03-22T00:14:29;102103.41;;;10.68;89.94
80186;BME280;69904;52.122;5.422;2024-03-22T00:16:55;102089.22;;;10.66;90.10
80186;BME280;69904;52.122;5.422;2024-03-22T00:19:20;102082.13;;;10.65;90.54
80186;BME280;69904;52.122;5.422;2024-03-22T00:21:46;102079.25;;;10.66;90.72
80186;BME280;69904;52.122;5.422;2024-03-22T00:24:11;102063.38;;;10.63;90.95
80186;BME280;69904;52.122;5.422;2024-03-22T00:26:37;102071.31;;;10.65;90.86
80186;BME280;69904;52.122;5.422;2024-03-22T00:29:02;102071.47;;;10.63;91.07
80186;BME280;69904;52.122;5.422;2024-03-22T00:31:28;102057.97;;;10.63;91.28
80186;BME280;69904;52.122;5.422;2024-03-22T00:33:53;102063.56;;;10.62;91.23
80186;BME280;69904;52.122;5.422;2024-03-22T00:36:19;102052.09;;;10.60;91.58
80186;BME280;69904;52.122;5.422;2024-03-22T00:38:44;102049.38;;;10.60;91.32
80186;BME280;69904;52.122;5.422;2024-03-22T00:41:10;102048.38;;;10.61;91.56
80186;BME280;69904;52.122;5.422;2024-03-22T00:43:36;102046.69;;;10.60;91.63
80186;BME280;69904;52.122;5.422;2024-03-22T00:46:01;102039.59;;;10.59;92.02
80186;BME280;69904;52.122;5.422;2024-03-22T00:48:28;102034.19;;;10.59;91.88
80186;BME280;69904;52.122;5.422;2024-03-22T00:50:54;102021.72;;;10.58;92.28
80186;BME280;69904;52.122;5.422;2024-03-22T00:53:19;102024.59;;;10.56;92.18
80186;BME280;69904;52.122;5.422;2024-03-22T00:55:45;102015.81;;;10.54;92.44
80186;BME280;69904;52.122;5.422;2024-03-22T00:58:11;102011.25;;;10.54;92.74
80186;BME280;69904;52.122;5.422;2024-03-22T01:00:37;102009.41;;;10.55;92.88
80186;BME280;69904;52.122;5.422;2024-03-22T01:03:03;102011.09;;;10.56;92.82
80186;BME280;69904;52.122;5.422;2024-03-22T01:05:29;102010.41;;;10.54;93.20
80186;BME280;69904;52.122;5.422;2024-03-22T01:07:54;102010.41;;;10.54;92.91
80186;BME280;69904;52.122;5.422;2024-03-22T01:10:19;102011.25;;;10.54;93.05
80186;BME280;69904;52.122;5.422;2024-03-22T01:12:45;102007.72;;;10.54;93.75
80186;BME280;69904;52.122;5.422;2024-03-22T01:15:10;102011.25;;;10.54;93.32
80186;BME280;69904;52.122;5.422;2024-03-22T01:17:36;102008.41;;;10.56;93.69
80186;BME280;69904;52.122;5.422;2024-03-22T01:20:02;101999.28;;;10.57;93.83
80186;BME280;69904;52.122;5.422;2024-03-22T01:22:28;102006.53;;;10.57;93.88
80186;BME280;69904;52.122;5.422;2024-03-22T01:24:53;102005.69;;;10.56;93.87
80186;BME280;69904;52.122;5.422;2024-03-22T01:27:19;102007.38;;;10.57;93.83
80186;BME280;69904;52.122;5.422;2024-03-22T01:29:46;102006.53;;;10.57;93.89
80186;BME280;69904;52.122;5.422;2024-03-22T01:32:12;102003.00;;;10.56;94.09
80186;BME280;69904;52.122;5.422;2024-03-22T01:34:38;102003.84;;;10.57;94.09
80186;BME280;69904;52.122;5.422;2024-03-22T01:37:03;101994.91;;;10.56;93.96
80186;BME280;69904;52.122;5.422;2024-03-22T01:39:29;101993.88;;;10.57;94.08
80186;BME280;69904;52.122;5.422;2024-03-22T01:41:55;101989.34;;;10.58;94.26
80186;BME280;69904;52.122;5.422;2024-03-22T01:44:27;101988.50;;;10.57;94.40
80186;BME280;69904;52.122;5.422;2024-03-22T01:46:53;101990.16;;;10.58;94.27
80186;BME280;69904;52.122;5.422;2024-03-22T01:49:19;101975.84;;;10.58;94.57
80186;BME280;69904;52.122;5.422;2024-03-22T01:51:44;101962.34;;;10.58;94.66
80186;BME280;69904;52.122;5.422;2024-03-22T01:54:10;101969.41;;;10.59;94.42
80186;BME280;69904;52.122;5.422;2024-03-22T01:56:36;101964.00;;;10.59;94.84
80186;BME280;69904;52.122;5.422;2024-03-22T01:59:03;101970.25;;;10.59;94.83
80186;BME280;69904;52.122;5.422;2024-03-22T02:01:29;101976.66;;;10.58;94.51
80186;BME280;69904;52.122;5.422;2024-03-22T02:03:55;101973.78;;;10.60;94.75
80186;BME280;69904;52.122;5.422;2024-03-22T02:06:20;101970.25;;;10.59;94.42
80186;BME280;69904;52.122;5.422;2024-03-22T02:08:46;101967.53;;;10.59;94.46
80186;BME280;69904;52.122;5.422;2024-03-22T02:11:11;101968.41;;;10.60;94.77
80186;BME280;69904;52.122;5.422;2024-03-22T02:13:36;101965.69;;;10.60;94.43
80186;BME280;69904;52.122;5.422;2024-03-22T02:16:03;101958.44;;;10.60;94.75
80186;BME280;69904;52.122;5.422;2024-03-22T02:18:28;101958.44;;;10.60;94.79
80186;BME280;69904;52.122;5.422;2024-03-22T02:20:54;101956.59;;;10.61;94.80
80186;BME280;69904;52.122;5.422;2024-03-22T02:23:31;101948.50;;;10.61;94.74
80186;BME280;69904;52.122;5.422;2024-03-22T02:25:57;101954.72;;;10.61;94.48
80186;BME280;69904;52.122;5.422;2024-03-22T02:28:22;101953.88;;;10.61;94.54
80186;BME280;69904;52.122;5.422;2024-03-22T02:30:48;101947.47;;;10.62;94.55
80186;BME280;69904;52.122;5.422;2024-03-22T02:33:13;101940.22;;;10.62;94.33
80186;BME280;69904;52.122;5.422;2024-03-22T02:35:39;101941.88;;;10.63;94.06
80186;BME280;69904;52.122;5.422;2024-03-22T02:38:04;101941.06;;;10.63;93.71
80186;BME280;69904;52.122;5.422;2024-03-22T02:40:30;101936.84;;;10.60;93.85
80186;BME280;69904;52.122;5.422;2024-03-22T02:42:55;101939.53;;;10.60;93.62
80186;BME280;69904;52.122;5.422;2024-03-22T02:45:21;101932.44;;;10.59;93.77
80186;BME280;69904;52.122;5.422;2024-03-22T02:47:46;101934.31;;;10.59;93.59
80186;BME280;69904;52.122;5.422;2024-03-22T02:50:12;101923.69;;;10.57;93.24
80186;BME280;69904;52.122;5.422;2024-03-22T02:52:37;101919.16;;;10.58;92.96
80186;BME280;69904;52.122;5.422;2024-03-22T02:55:03;101908.69;;;10.54;92.74
80186;BME280;69904;52.122;5.422;2024-03-22T02:57:29;101912.56;;;10.52;92.75
80186;BME280;69904;52.122;5.422;2024-03-22T02:59:54;101906.34;;;10.51;92.55
80186;BME280;69904;52.122;5.422;2024-03-22T03:02:20;101899.25;;;10.50;92.72
80186;BME280;69904;52.122;5.422;2024-03-22T03:04:45;101885.91;;;10.49;92.50
80186;BME280;69904;52.122;5.422;2024-03-22T03:07:11;101873.44;;;10.48;92.74
80186;BME280;69904;52.122;5.422;2024-03-22T03:09:36;101868.22;;;10.46;92.75
80186;BME280;69904;52.122;5.422;2024-03-22T03:12:02;101870.06;;;10.46;92.60
80186;BME280;69904;52.122;5.422;2024-03-22T03:14:27;101864.00;;;10.44;92.65
80186;BME280;69904;52.122;5.422;2024-03-22T03:16:53;101870.06;;;10.38;92.58
80186;BME280;69904;52.122;5.422;2024-03-22T03:19:18;101867.72;;;10.35;92.41
80186;BME280;69904;52.122;5.422;2024-03-22T03:21:44;101856.09;;;10.34;92.19
80186;BME280;69904;52.122;5.422;2024-03-22T03:24:09;101865.34;;;10.32;92.10
80186;BME280;69904;52.122;5.422;2024-03-22T03:26:35;101859.47;;;10.28;92.14
80186;BME280;69904;52.122;5.422;2024-03-22T03:29:01;101853.59;;;10.25;92.11
80186;BME280;69904;52.122;5.422;2024-03-22T03:31:26;101850.56;;;10.20;92.52
80186;BME280;69904;52.122;5.422;2024-03-22T03:33:52;101860.50;;;10.19;92.38
80186;BME280;69904;52.122;5.422;2024-03-22T03:36:17;101851.84;;;10.15;92.36
80186;BME280;69904;52.122;5.422;2024-03-22T03:38:43;101842.25;;;10.13;92.20
80186;BME280;69904;52.122;5.422;2024-03-22T03:41:08;101835.00;;;10.13;92.64
80186;BME280;69904;52.122;5.422;2024-03-22T03:43:34;101841.41;;;10.12;92.65
80186;BME280;69904;52.122;5.422;2024-03-22T03:45:59;101831.78;;;10.10;92.36
80186;BME280;69904;52.122;5.422;2024-03-22T03:48:25;101822.03;;;10.09;92.29
80186;BME280;69904;52.122;5.422;2024-03-22T03:50:54;101830.13;;;10.09;92.40
80186;BME280;69904;52.122;5.422;2024-03-22T03:53:21;101822.19;;;10.07;92.57
80186;BME280;69904;52.122;5.422;2024-03-22T03:55:46;101815.13;;;10.06;92.47
80186;BME280;69904;52.122;5.422;2024-03-22T03:58:12;101812.78;;;10.03;92.49
80186;BME280;69904;52.122;5.422;2024-03-22T04:00:37;101810.25;;;10.02;92.75
80186;BME280;69904;52.122;5.422;2024-03-22T04:03:03;101818.34;;;10.02;92.55
80186;BME280;69904;52.122;5.422;2024-03-22T04:05:29;101816.47;;;10.02;92.40
80186;BME280;69904;52.122;5.422;2024-03-22T04:07:54;101817.84;;;9.98;92.78
80186;BME280;69904;52.122;5.422;2024-03-22T04:10:20;101808.72;;;9.99;92.65
80186;BME280;69904;52.122;5.422;2024-03-22T04:12:45;101822.72;;;9.95;92.19
80186;BME280;69904;52.122;5.422;2024-03-22T04:15:11;101812.28;;;9.92;92.15
80186;BME280;69904;52.122;5.422;2024-03-22T04:17:36;101814.97;;;9.92;92.09
80186;BME280;69904;52.122;5.422;2024-03-22T04:20:02;101822.06;;;9.93;92.12
80186;BME280;69904;52.122;5.422;2024-03-22T04:22:29;101809.56;;;9.92;92.12
80186;BME280;69904;52.122;5.422;2024-03-22T04:24:55;101813.28;;;9.91;92.18
80186;BME280;69904;52.122;5.422;2024-03-22T04:27:20;101808.72;;;9.91;92.11
80186;BME280;69904;52.122;5.422;2024-03-22T04:29:49;101808.56;;;9.93;92.14
80186;BME280;69904;52.122;5.422;2024-03-22T04:32:14;101812.13;;;9.93;91.66
80186;BME280;69904;52.122;5.422;2024-03-22T04:34:43;101812.13;;;9.93;92.02
80186;BME280;69904;52.122;5.422;2024-03-22T04:37:09;101808.06;;;9.89;91.66
80186;BME280;69904;52.122;5.422;2024-03-22T04:39:35;101812.78;;;9.87;91.53
80186;BME280;69904;52.122;5.422;2024-03-22T04:42:02;101804.34;;;9.90;91.49
80186;BME280;69904;52.122;5.422;2024-03-22T04:44:27;101813.63;;;9.88;91.33
80186;BME280;69904;52.122;5.422;2024-03-22T04:46:53;101820.03;;;9.87;91.85
80186;BME280;69904;52.122;5.422;2024-03-22T04:49:18;101817.50;;;9.85;91.61
80186;BME280;69904;52.122;5.422;2024-03-22T04:51:44;101803.00;;;9.86;91.35
80186;BME280;69904;52.122;5.422;2024-03-22T04:54:09;101810.41;;;9.84;91.24
80186;BME280;69904;52.122;5.422;2024-03-22T04:56:35;101809.56;;;9.84;91.56
80186;BME280;69904;52.122;5.422;2024-03-22T04:59:00;101806.03;;;9.83;91.18
80186;BME280;69904;52.122;5.422;2024-03-22T05:01:25;101804.69;;;9.79;91.46
80186;BME280;69904;52.122;5.422;2024-03-22T05:03:51;101813.63;;;9.80;91.34
80186;BME280;69904;52.122;5.422;2024-03-22T05:06:17;101816.31;;;9.80;91.62
80186;BME280;69904;52.122;5.422;2024-03-22T05:08:43;101808.56;;;9.77;91.70
80186;BME280;69904;52.122;5.422;2024-03-22T05:11:09;101806.72;;;9.77;91.59
80186;BME280;69904;52.122;5.422;2024-03-22T05:13:35;101815.81;;;9.76;91.46
80186;BME280;69904;52.122;5.422;2024-03-22T05:16:00;101808.56;;;9.77;91.70
80186;BME280;69904;52.122;5.422;2024-03-22T05:18:26;101805.69;;;9.78;91.57
80186;BME280;69904;52.122;5.422;2024-03-22T05:20:51;101799.44;;;9.78;91.62
80186;BME280;69904;52.122;5.422;2024-03-22T05:23:17;101804.03;;;9.77;91.43
80186;BME280;69904;52.122;5.422;2024-03-22T05:25:43;101806.88;;;9.76;91.77
80186;BME280;69904;52.122;5.422;2024-03-22T05:28:09;101802.34;;;9.76;91.35
80186;BME280;69904;52.122;5.422;2024-03-22T05:30:34;101801.66;;;9.74;91.54
80186;BME280;69904;52.122;5.422;2024-03-22T05:33:00;101796.09;;;9.76;91.63
80186;BME280;69904;52.122;5.422;2024-03-22T05:35:27;101793.41;;;9.76;91.21
80186;BME280;69904;52.122;5.422;2024-03-22T05:37:52;101781.94;;;9.73;91.29
80186;BME280;69904;52.122;5.422;2024-03-22T05:40:18;101790.22;;;9.72;91.13
80186;BME280;69904;52.122;5.422;2024-03-22T05:42:43;101785.47;;;9.74;91.10
80186;BME280;69904;52.122;5.422;2024-03-22T05:45:09;101784.63;;;9.73;91.17
80186;BME280;69904;52.122;5.422;2024-03-22T05:47:34;101776.75;;;9.72;91.33
80186;BME280;69904;52.122;5.422;2024-03-22T05:50:00;101773.84;;;9.73;91.46
80186;BME280;69904;52.122;5.422;2024-03-22T05:52:27;101765.44;;;9.68;91.14
80186;BME280;69904;52.122;5.422;2024-03-22T05:54:52;101768.28;;;9.67;91.71
80186;BME280;69904;52.122;5.422;2024-03-22T05:57:18;101769.97;;;9.68;91.10
80186;BME280;69904;52.122;5.422;2024-03-22T05:59:43;101769.13;;;9.67;91.55
80186;BME280;69904;52.122;5.422;2024-03-22T06:02:09;101771.66;;;9.69;91.31
80186;BME280;69904;52.122;5.422;2024-03-22T06:04:35;101759.38;;;9.66;91.22
80186;BME280;69904;52.122;5.422;2024-03-22T06:07:01;101763.09;;;9.65;91.26
80186;BME280;69904;52.122;5.422;2024-03-22T06:09:29;101761.25;;;9.66;91.24
80186;BME280;69904;52.122;5.422;2024-03-22T06:12:12;101761.91;;;9.68;90.95
80186;BME280;69904;52.122;5.422;2024-03-22T06:14:37;101765.28;;;9.70;90.92
80186;BME280;69904;52.122;5.422;2024-03-22T06:17:04;101763.75;;;9.67;90.91
80186;BME280;69904;52.122;5.422;2024-03-22T06:19:29;101759.19;;;9.68;91.09
80186;BME280;69904;52.122;5.422;2024-03-22T06:21:55;101769.81;;;9.69;91.10
80186;BME280;69904;52.122;5.422;2024-03-22T06:24:20;101761.72;;;9.69;90.73
80186;BME280;69904;52.122;5.422;2024-03-22T06:26:46;101751.63;;;9.71;90.73
80186;BME280;69904;52.122;5.422;2024-03-22T06:29:11;101754.34;;;9.71;90.86
80186;BME280;69904;52.122;5.422;2024-03-22T06:31:38;101752.13;;;9.75;90.78
80186;BME280;69904;52.122;5.422;2024-03-22T06:34:03;101750.44;;;9.74;90.44
80186;BME280;69904;52.122;5.422;2024-03-22T06:36:31;101748.44;;;9.76;90.55
80186;BME280;69904;52.122;5.422;2024-03-22T06:38:58;101756.16;;;9.79;90.44
80186;BME280;69904;52.122;5.422;2024-03-22T06:41:24;101758.53;;;9.82;90.43
80186;BME280;69904;52.122;5.422;2024-03-22T06:43:51;101751.94;;;9.85;89.91
80186;BME280;69904;52.122;5.422;2024-03-22T06:46:17;101745.38;;;9.87;89.66
80186;BME280;69904;52.122;5.422;2024-03-22T06:48:43;101749.94;;;9.87;89.63
80186;BME280;69904;52.122;5.422;2024-03-22T06:51:08;101751.63;;;9.88;89.46
80186;BME280;69904;52.122;5.422;2024-03-22T06:53:34;101754.66;;;9.93;89.38
80186;BME280;69904;52.122;5.422;2024-03-22T06:56:00;101754.66;;;9.93;89.46
80186;BME280;69904;52.122;5.422;2024-03-22T06:58:25;101756.97;;;9.96;88.98
80186;BME280;69904;52.122;5.422;2024-03-22T07:00:51;101760.16;;;9.99;89.31
80186;BME280;69904;52.122;5.422;2024-03-22T07:03:16;101753.25;;;10.05;88.87
80186;BME280;69904;52.122;5.422;2024-03-22T07:05:43;101750.75;;;10.03;88.93
80186;BME280;69904;52.122;5.422;2024-03-22T07:08:08;101759.31;;;10.07;88.61
80186;BME280;69904;52.122;5.422;2024-03-22T07:10:34;101750.22;;;10.08;88.62
80186;BME280;69904;52.122;5.422;2024-03-22T07:13:00;101766.25;;;10.09;88.61
80186;BME280;69904;52.122;5.422;2024-03-22T07:15:26;101759.16;;;10.08;88.54
80186;BME280;69904;52.122;5.422;2024-03-22T07:17:51;101761.34;;;10.13;88.89
80186;BME280;69904;52.122;5.422;2024-03-22T07:20:17;101749.53;;;10.14;88.36
80186;BME280;69904;52.122;5.422;2024-03-22T07:22:44;101758.31;;;10.16;88.37
80186;BME280;69904;52.122;5.422;2024-03-22T07:25:09;101757.78;;;10.21;88.40
80186;BME280;69904;52.122;5.422;2024-03-22T07:27:36;101752.41;;;10.21;88.01
80186;BME280;69904;52.122;5.422;2024-03-22T07:30:02;101761.00;;;10.16;87.64
80186;BME280;69904;52.122;5.422;2024-03-22T07:32:29;101764.03;;;10.13;88.09
80186;BME280;69904;52.122;5.422;2024-03-22T07:34:55;101760.34;;;10.14;87.79
80186;BME280;69904;52.122;5.422;2024-03-22T07:37:20;101760.34;;;10.14;87.86
80186;BME280;69904;52.122;5.422;2024-03-22T07:39:46;101759.66;;;10.12;87.80
80186;BME280;69904;52.122;5.422;2024-03-22T07:42:12;101761.50;;;10.11;87.73
80186;BME280;69904;52.122;5.422;2024-03-22T07:44:37;101758.81;;;10.11;87.84
80186;BME280;69904;52.122;5.422;2024-03-22T07:47:03;101761.00;;;10.08;87.80
80186;BME280;69904;52.122;5.422;2024-03-22T07:49:28;101753.78;;;10.08;88.06
80186;BME280;69904;52.122;5.422;2024-03-22T07:51:54;101750.88;;;10.10;87.67
80186;BME280;69904;52.122;5.422;2024-03-22T07:54:20;101756.09;;;10.11;87.64
80186;BME280;69904;52.122;5.422;2024-03-22T07:56:46;101750.88;;;10.10;87.96
80186;BME280;69904;52.122;5.422;2024-03-22T07:59:11;101749.72;;;10.12;87.90
80186;BME280;69904;52.122;5.422;2024-03-22T08:01:37;101753.09;;;10.14;87.83
80186;BME280;69904;52.122;5.422;2024-03-22T08:04:02;101764.19;;;10.11;87.43
80186;BME280;69904;52.122;5.422;2024-03-22T08:06:28;101758.47;;;10.06;87.55
80186;BME280;69904;52.122;5.422;2024-03-22T08:08:53;101756.63;;;10.07;88.06
80186;BME280;69904;52.122;5.422;2024-03-22T08:11:19;101759.31;;;10.07;88.13
80186;BME280;69904;52.122;5.422;2024-03-22T08:13:45;101756.63;;;10.07;87.74
80186;BME280;69904;52.122;5.422;2024-03-22T08:16:10;101747.53;;;10.08;88.29
80186;BME280;69904;52.122;5.422;2024-03-22T08:18:36;101760.34;;;10.06;88.27
80186;BME280;69904;52.122;5.422;2024-03-22T08:21:01;101758.16;;;10.09;88.64
80186;BME280;69904;52.122;5.422;2024-03-22T08:23:28;101749.72;;;10.04;89.16
80186;BME280;69904;52.122;5.422;2024-03-22T08:25:53;101748.38;;;10.00;89.31
80186;BME280;69904;52.122;5.422;2024-03-22T08:28:19;101742.97;;;10.00;89.78
80186;BME280;69904;52.122;5.422;2024-03-22T08:30:44;101751.44;;;9.97;90.69
80186;BME280;69904;52.122;5.422;2024-03-22T08:33:10;101762.53;;;9.94;90.84
80186;BME280;69904;52.122;5.422;2024-03-22T08:35:37;101739.47;;;9.92;91.39
80186;BME280;69904;52.122;5.422;2024-03-22T08:38:02;101741.16;;;9.93;91.67
80186;BME280;69904;52.122;5.422;2024-03-22T08:40:29;101749.41;;;9.91;91.87
80186;BME280;69904;52.122;5.422;2024-03-22T08:42:55;101740.63;;;9.89;92.49
80186;BME280;69904;52.122;5.422;2024-03-22T08:45:20;101745.19;;;9.89;92.50
80186;BME280;69904;52.122;5.422;2024-03-22T08:47:46;101739.63;;;9.90;92.71
80186;BME280;69904;52.122;5.422;2024-03-22T08:50:11;101743.84;;;9.93;93.07
80186;BME280;69904;52.122;5.422;2024-03-22T08:52:37;101745.03;;;9.90;93.55
80186;BME280;69904;52.122;5.422;2024-03-22T08:55:04;101741.16;;;9.93;93.26
80186;BME280;69904;52.122;5.422;2024-03-22T08:57:31;101736.25;;;9.96;93.68
80186;BME280;69904;52.122;5.422;2024-03-22T08:59:57;101741.66;;;9.96;93.72
80186;BME280;69904;52.122;5.422;2024-03-22T09:02:23;101736.78;;;9.92;94.07
80186;BME280;69904;52.122;5.422;2024-03-22T09:04:48;101738.13;;;9.88;93.81
80186;BME280;69904;52.122;5.422;2024-03-22T09:07:15;101738.94;;;9.88;94.10
80186;BME280;69904;52.122;5.422;2024-03-22T09:09:40;101735.25;;;9.89;94.32
80186;BME280;69904;52.122;5.422;2024-03-22T09:12:06;101741.00;;;9.86;94.67
80186;BME280;69904;52.122;5.422;2024-03-22T09:14:33;101735.59;;;9.86;94.85
80186;BME280;69904;52.122;5.422;2024-03-22T09:16:58;101744.34;;;9.88;94.82
80186;BME280;69904;52.122;5.422;2024-03-22T09:19:23;101736.94;;;9.90;94.93
80186;BME280;69904;52.122;5.422;2024-03-22T09:21:49;101747.72;;;9.90;95.41
80186;BME280;69904;52.122;5.422;2024-03-22T09:24:15;101735.78;;;9.93;95.39
80186;BME280;69904;52.122;5.422;2024-03-22T09:26:40;101730.69;;;9.90;95.56
80186;BME280;69904;52.122;5.422;2024-03-22T09:29:06;101726.31;;;9.89;95.82
80186;BME280;69904;52.122;5.422;2024-03-22T09:31:31;101730.03;;;9.88;96.07
80186;BME280;69904;52.122;5.422;2024-03-22T09:33:58;101732.75;;;9.88;96.35
80186;BME280;69904;52.122;5.422;2024-03-22T09:36:24;101728.16;;;9.96;96.44
80186;BME280;69904;52.122;5.422;2024-03-22T09:38:50;101724.94;;;10.01;96.36
80186;BME280;69904;52.122;5.422;2024-03-22T09:41:19;101731.19;;;10.01;96.75
80186;BME280;69904;52.122;5.422;2024-03-22T09:43:51;101733.41;;;9.98;96.69
80186;BME280;69904;52.122;5.422;2024-03-22T09:46:18;101730.34;;;10.01;96.95
80186;BME280;69904;52.122;5.422;2024-03-22T09:48:46;101727.81;;;9.99;96.85
80186;BME280;69904;52.122;5.422;2024-03-22T09:51:12;101721.25;;;10.02;97.21
80186;BME280;69904;52.122;5.422;2024-03-22T09:53:39;101727.00;;;9.99;97.25
80186;BME280;69904;52.122;5.422;2024-03-22T09:56:05;101726.78;;;10.00;97.20
80186;BME280;69904;52.122;5.422;2024-03-22T09:58:31;101724.94;;;10.09;97.17
80186;BME280;69904;52.122;5.422;2024-03-22T10:00:56;101725.09;;;10.07;97.00
80186;BME280;69904;52.122;5.422;2024-03-22T10:03:26;101719.03;;;10.05;97.23
80186;BME280;69904;52.122;5.422;2024-03-22T10:05:51;101721.09;;;10.03;97.09
80186;BME280;69904;52.122;5.422;2024-03-22T10:08:17;101721.25;;;10.02;97.35
80186;BME280;69904;52.122;5.422;2024-03-22T10:10:42;101716.34;;;10.05;97.28
80186;BME280;69904;52.122;5.422;2024-03-22T10:13:08;101718.34;;;10.11;97.60
80186;BME280;69904;52.122;5.422;2024-03-22T10:15:34;101717.00;;;10.07;97.32
80186;BME280;69904;52.122;5.422;2024-03-22T10:18:00;101722.56;;;10.06;97.30
80186;BME280;69904;52.122;5.422;2024-03-22T10:20:25;101718.69;;;10.08;97.49
80186;BME280;69904;52.122;5.422;2024-03-22T10:23:00;101707.91;;;10.08;97.21
80186;BME280;69904;52.122;5.422;2024-03-22T10:25:26;101704.38;;;10.08;97.61
80186;BME280;69904;52.122;5.422;2024-03-22T10:27:56;101705.53;;;10.13;97.29
80186;BME280;69904;52.122;5.422;2024-03-22T10:30:22;101701.00;;;10.14;97.17
80186;BME280;69904;52.122;5.422;2024-03-22T10:32:48;101709.22;;;10.21;97.30
80186;BME280;69904;52.122;5.422;2024-03-22T10:35:15;101705.53;;;10.22;97.04
80186;BME280;69904;52.122;5.422;2024-03-22T10:37:42;101704.53;;;10.23;97.44
80186;BME280;69904;52.122;5.422;2024-03-22T10:40:08;101712.09;;;10.27;97.13
80186;BME280;69904;52.122;5.422;2024-03-22T10:42:39;101712.44;;;10.24;97.14
80186;BME280;69904;52.122;5.422;2024-03-22T10:45:06;101709.06;;;10.22;97.57
80186;BME280;69904;52.122;5.422;2024-03-22T10:47:33;101708.59;;;10.19;97.33
80186;BME280;69904;52.122;5.422;2024-03-22T10:50:09;101702.66;;;10.15;97.60
80186;BME280;69904;52.122;5.422;2024-03-22T10:52:57;101710.91;;;10.22;97.39
80186;BME280;69904;52.122;5.422;2024-03-22T10:55:40;101712.63;;;10.23;97.65
80186;BME280;69904;52.122;5.422;2024-03-22T10:58:17;101709.22;;;10.21;97.40
80186;BME280;69904;52.122;5.422;2024-03-22T11:00:43;101708.41;;;10.20;97.52
80186;BME280;69904;52.122;5.422;2024-03-22T11:03:09;101704.69;;;10.21;97.63
80186;BME280;69904;52.122;5.422;2024-03-22T11:05:44;101700.66;;;10.25;97.69
80186;BME280;69904;52.122;5.422;2024-03-22T11:08:10;101701.97;;;10.29;97.83
80186;BME280;69904;52.122;5.422;2024-03-22T11:10:37;101696.72;;;10.36;97.76
80186;BME280;69904;52.122;5.422;2024-03-22T11:13:08;101691.13;;;10.37;97.98
80186;BME280;69904;52.122;5.422;2024-03-22T11:15:34;101697.03;;;10.41;97.56
80186;BME280;69904;52.122;5.422;2024-03-22T11:18:00;101701.28;;;10.35;97.78
80186;BME280;69904;52.122;5.422;2024-03-22T11:20:29;101698.69;;;10.42;97.48
80186;BME280;69904;52.122;5.422;2024-03-22T11:22:57;101692.78;;;10.46;97.96
80186;BME280;69904;52.122;5.422;2024-03-22T11:25:23;101685.31;;;10.57;97.76
80186;BME280;69904;52.122;5.422;2024-03-22T11:27:48;101681.09;;;10.54;97.59
80186;BME280;69904;52.122;5.422;2024-03-22T11:30:15;101683.94;;;10.61;97.75
80186;BME280;69904;52.122;5.422;2024-03-22T11:32:41;101682.09;;;10.61;97.76
80186;BME280;69904;52.122;5.422;2024-03-22T11:35:11;101669.03;;;10.73;97.69
80186;BME280;69904;52.122;5.422;2024-03-22T11:37:41;101672.50;;;10.81;97.75
80186;BME280;69904;52.122;5.422;2024-03-22T11:40:10;101669.34;;;10.78;97.42
80186;BME280;69904;52.122;5.422;2024-03-22T11:42:41;101671.81;;;10.79;97.26
80186;BME280;69904;52.122;5.422;2024-03-22T11:45:09;101661.88;;;10.80;97.48
80186;BME280;69904;52.122;5.422;2024-03-22T11:47:36;101659.19;;;10.80;97.49
80186;BME280;69904;52.122;5.422;2024-03-22T11:50:02;101654.69;;;10.72;96.78
80186;BME280;69904;52.122;5.422;2024-03-22T11:52:28;101658.16;;;10.81;97.27
80186;BME280;69904;52.122;5.422;2024-03-22T11:54:54;101655.97;;;10.84;96.90
80186;BME280;69904;52.122;5.422;2024-03-22T11:57:21;101660.22;;;10.79;96.77
80186;BME280;69904;52.122;5.422;2024-03-22T11:59:47;101642.34;;;10.78;97.19
80186;BME280;69904;52.122;5.422;2024-03-22T12:02:12;101654.47;;;10.74;97.27
80186;BME280;69904;52.122;5.422;2024-03-22T12:04:46;101659.94;;;10.66;97.19
80186;BME280;69904;52.122;5.422;2024-03-22T12:07:15;101661.97;;;10.64;96.89
80186;BME280;69904;52.122;5.422;2024-03-22T12:09:41;101655.72;;;10.63;97.20
80186;BME280;69904;52.122;5.422;2024-03-22T12:12:08;101651.53;;;10.61;96.72
80186;BME280;69904;52.122;5.422;2024-03-22T12:14:34;101647.47;;;10.65;96.87
80186;BME280;69904;52.122;5.422;2024-03-22T12:17:00;101644.94;;;10.63;96.93
80186;BME280;69904;52.122;5.422;2024-03-22T12:19:25;101653.03;;;10.63;96.92
80186;BME280;69904;52.122;5.422;2024-03-22T12:21:51;101652.56;;;10.60;96.66
80186;BME280;69904;52.122;5.422;2024-03-22T12:24:17;101649.53;;;10.63;96.87
80186;BME280;69904;52.122;5.422;2024-03-22T12:26:42;101648.78;;;10.69;96.88
80186;BME280;69904;52.122;5.422;2024-03-22T12:29:08;101652.81;;;10.73;96.46
80186;BME280;69904;52.122;5.422;2024-03-22T12:31:37;101644.94;;;10.63;96.24
80186;BME280;69904;52.122;5.422;2024-03-22T12:34:03;101640.75;;;10.61;95.82
80186;BME280;69904;52.122;5.422;2024-03-22T12:36:28;101646.31;;;10.59;95.55
80186;BME280;69904;52.122;5.422;2024-03-22T12:38:54;101630.97;;;10.60;95.90
80186;BME280;69904;52.122;5.422;2024-03-22T12:41:19;101636.38;;;10.60;95.58
80186;BME280;69904;52.122;5.422;2024-03-22T12:43:45;101644.00;;;10.56;95.49
80186;BME280;69904;52.122;5.422;2024-03-22T12:46:11;101634.88;;;10.57;95.73
80186;BME280;69904;52.122;5.422;2024-03-22T12:48:36;101629.41;;;10.65;95.58